sensor_id;sensor_type;location;lat;lon;timestamp;temperature;humidity
37906;DHT22;23739;51.448;6.674;2022-12-07T00:00:26;5.00;99.90
37906;DHT22;23739;51.448;6.674;2022-12-07T00:02:52;5.00;99.90
37906;DHT22;23739;51.448;6.674;2022-12-07T00:05:17;4.90;99.90
37906;DHT22;23739;51.448;6.674;2022-12-07T00:07:43;5.00;99.90
37906;DHT22;23739;51.448;6.674;2022-12-07T00:10:09;5.00;99.90
37906;DHT22;23739;51.448;6.674;2022-12-07T00:12:34;5.00;99.90
37906;DHT22;23739;51.448;6.674;2022-12-07T00:15:00;5.00;99.90
37906;DHT22;23739;51.448;6.674;2022-12-07T00:17:25;5.00;99.90
37906;DHT22;23739;51.448;6.674;2022-12-07T00:19:51;4.90;99.90
37906;DHT22;23739;51.448;6.674;2022-12-07T00:22:16;4.90;99.90
37906;DHT22;23739;51.448;6.674;2022-12-07T00:24:42;4.90;99.90
37906;DHT22;23739;51.448;6.674;2022-12-07T00:27:08;5.00;99.90
37906;DHT22;23739;51.448;6.674;2022-12-07T00:29:33;5.00;99.90
37906;DHT22;23739;51.448;6.674;2022-12-07T00:31:59;4.90;99.90
37906;DHT22;23739;51.448;6.674;2022-12-07T00:34:25;4.90;99.90
37906;DHT22;23739;51.448;6.674;2022-12-07T00:36:50;4.90;99.90
37906;DHT22;23739;51.448;6.674;2022-12-07T00:39:16;4.90;99.90
37906;DHT22;23739;51.448;6.674;2022-12-07T00:41:41;4.90;99.90
37906;DHT22;23739;51.448;6.674;2022-12-07T00:44:07;4.90;99.90
37906;DHT22;23739;51.448;6.674;2022-12-07T00:46:33;4.90;99.90
37906;DHT22;23739;51.448;6.674;2022-12-07T00:48:58;4.90;99.90
37906;DHT22;23739;51.448;6.674;2022-12-07T00:51:24;4.90;99.90
37906;DHT22;23739;51.448;6.674;2022-12-07T00:53:51;4.90;99.90
37906;DHT22;23739;51.448;6.674;2022-12-07T00:56:18;4.90;99.90
37906;DHT22;23739;51.448;6.674;2022-12-07T00:58:44;4.90;99.90
37906;DHT22;23739;51.448;6.674;2022-12-07T01:01:14;4.90;99.90
37906;DHT22;23739;51.448;6.674;2022-12-07T01:03:40;4.90;99.90
37906;DHT22;23739;51.448;6.674;2022-12-07T01:06:05;4.80;99.90
37906;DHT22;23739;51.448;6.674;2022-12-07T01:08:31;4.80;99.90
37906;DHT22;23739;51.448;6.674;2022-12-07T01:11:04;4.80;99.90
37906;DHT22;23739;51.448;6.674;2022-12-07T01:13:31;4.80;99.90
37906;DHT22;23739;51.448;6.674;2022-12-07T01:15:58;4.80;99.90
37906;DHT22;23739;51.448;6.674;2022-12-07T01:18:26;4.80;99.90
37906;DHT22;23739;51.448;6.674;2022-12-07T01:21:02;4.70;99.90
37906;DHT22;23739;51.448;6.674;2022-12-07T01:23:28;4.70;99.90
37906;DHT22;23739;51.448;6.674;2022-12-07T01:25:55;4.70;99.90
37906;DHT22;23739;51.448;6.674;2022-12-07T01:28:21;4.70;99.90
37906;DHT22;23739;51.448;6.674;2022-12-07T01:30:54;4.60;99.90
37906;DHT22;23739;51.448;6.674;2022-12-07T01:33:19;4.60;99.90
37906;DHT22;23739;51.448;6.674;2022-12-07T01:35:45;4.70;99.90
37906;DHT22;23739;51.448;6.674;2022-12-07T01:38:11;4.60;99.90
37906;DHT22;23739;51.448;6.674;2022-12-07T01:40:37;4.60;99.90
37906;DHT22;23739;51.448;6.674;2022-12-07T01:43:04;4.60;99.90
37906;DHT22;23739;51.448;6.674;2022-12-07T01:45:41;4.50;99.90
37906;DHT22;23739;51.448;6.674;2022-12-07T01:48:08;4.60;99.90
37906;DHT22;23739;51.448;6.674;2022-12-07T01:50:34;4.50;99.90
37906;DHT22;23739;51.448;6.674;2022-12-07T01:53:01;4.50;99.90
37906;DHT22;23739;51.448;6.674;2022-12-07T01:55:28;4.50;99.90
37906;DHT22;23739;51.448;6.674;2022-12-07T01:57:54;4.50;99.90
37906;DHT22;23739;51.448;6.674;2022-12-07T02:00:20;4.40;99.90
37906;DHT22;23739;51.448;6.674;2022-12-07T02:02:47;4.40;99.90
37906;DHT22;23739;51.448;6.674;2022-12-07T02:05:15;4.40;99.90
37906;DHT22;23739;51.448;6.674;2022-12-07T02:07:41;4.40;99.90
37906;DHT22;23739;51.448;6.674;2022-12-07T02:12:39;4.40;99.90
37906;DHT22;23739;51.448;6.674;2022-12-07T02:15:05;4.40;99.90
37906;DHT22;23739;51.448;6.674;2022-12-07T02:17:32;4.30;99.90
37906;DHT22;23739;51.448;6.674;2022-12-07T02:27:47;4.30;99.90
37906;DHT22;23739;51.448;6.674;2022-12-07T02:30:22;4.30;99.90
37906;DHT22;23739;51.448;6.674;2022-12-07T02:32:58;4.30;99.90
37906;DHT22;23739;51.448;6.674;2022-12-07T02:35:33;4.30;99.90
37906;DHT22;23739;51.448;6.674;2022-12-07T02:40:27;4.30;99.90
37906;DHT22;23739;51.448;6.674;2022-12-07T02:43:08;4.20;99.90
37906;DHT22;23739;51.448;6.674;2022-12-07T02:45:36;4.20;99.90
37906;DHT22;23739;51.448;6.674;2022-12-07T02:48:04;4.10;99.90
37906;DHT22;23739;51.448;6.674;2022-12-07T02:50:30;4.10;99.90
37906;DHT22;23739;51.448;6.674;2022-12-07T02:52:56;4.10;99.90
37906;DHT22;23739;51.448;6.674;2022-12-07T02:55:23;4.10;99.90
37906;DHT22;23739;51.448;6.674;2022-12-07T03:00:38;3.90;99.90
37906;DHT22;23739;51.448;6.674;2022-12-07T03:03:09;3.90;99.90
37906;DHT22;23739;51.448;6.674;2022-12-07T03:11:00;3.90;99.90
37906;DHT22;23739;51.448;6.674;2022-12-07T03:18:21;3.80;99.90
37906;DHT22;23739;51.448;6.674;2022-12-07T03:20:48;3.80;99.90
37906;DHT22;23739;51.448;6.674;2022-12-07T03:23:15;3.80;99.90
37906;DHT22;23739;51.448;6.674;2022-12-07T03:25:43;3.70;99.90
37906;DHT22;23739;51.448;6.674;2022-12-07T03:28:09;3.70;99.90
37906;DHT22;23739;51.448;6.674;2022-12-07T03:30:46;3.60;99.90
37906;DHT22;23739;51.448;6.674;2022-12-07T03:33:13;3.60;99.90
37906;DHT22;23739;51.448;6.674;2022-12-07T03:35:47;3.50;99.90
37906;DHT22;23739;51.448;6.674;2022-12-07T03:38:21;3.50;99.90
37906;DHT22;23739;51.448;6.674;2022-12-07T03:40:52;3.50;99.90
37906;DHT22;23739;51.448;6.674;2022-12-07T03:43:20;3.50;99.90
37906;DHT22;23739;51.448;6.674;2022-12-07T03:49:04;3.50;99.90
37906;DHT22;23739;51.448;6.674;2022-12-07T03:51:21;3.60;99.90
37906;DHT22;23739;51.448;6.674;2022-12-07T03:53:59;3.60;99.90
37906;DHT22;23739;51.448;6.674;2022-12-07T03:56:27;3.70;99.90
37906;DHT22;23739;51.448;6.674;2022-12-07T03:58:53;3.70;99.90
37906;DHT22;23739;51.448;6.674;2022-12-07T04:01:19;3.70;99.90
37906;DHT22;23739;51.448;6.674;2022-12-07T04:03:44;3.70;99.90
37906;DHT22;23739;51.448;6.674;2022-12-07T04:06:10;3.70;99.90
37906;DHT22;23739;51.448;6.674;2022-12-07T04:08:36;3.70;99.90
37906;DHT22;23739;51.448;6.674;2022-12-07T04:11:01;3.70;99.90
37906;DHT22;23739;51.448;6.674;2022-12-07T04:13:27;3.70;99.90
37906;DHT22;23739;51.448;6.674;2022-12-07T04:15:52;3.80;99.90
37906;DHT22;23739;51.448;6.674;2022-12-07T04:18:18;3.70;99.90
37906;DHT22;23739;51.448;6.674;2022-12-07T04:20:45;3.70;99.90
37906;DHT22;23739;51.448;6.674;2022-12-07T04:23:10;3.70;99.90
37906;DHT22;23739;51.448;6.674;2022-12-07T04:25:36;3.60;99.90
37906;DHT22;23739;51.448;6.674;2022-12-07T04:28:01;3.60;99.90
37906;DHT22;23739;51.448;6.674;2022-12-07T04:30:27;3.60;99.90
37906;DHT22;23739;51.448;6.674;2022-12-07T04:32:52;3.50;99.90
37906;DHT22;23739;51.448;6.674;2022-12-07T04:35:18;3.50;99.90
37906;DHT22;23739;51.448;6.674;2022-12-07T04:37:44;3.60;99.90
37906;DHT22;23739;51.448;6.674;2022-12-07T04:40:09;3.50;99.90
37906;DHT22;23739;51.448;6.674;2022-12-07T04:42:36;3.60;99.90
37906;DHT22;23739;51.448;6.674;2022-12-07T04:45:02;3.60;99.90
37906;DHT22;23739;51.448;6.674;2022-12-07T04:47:28;3.60;99.90
37906;DHT22;23739;51.448;6.674;2022-12-07T04:49:54;3.60;99.90
37906;DHT22;23739;51.448;6.674;2022-12-07T04:52:19;3.60;99.90
37906;DHT22;23739;51.448;6.674;2022-12-07T04:54:45;3.60;99.90
37906;DHT22;23739;51.448;6.674;2022-12-07T04:57:10;3.60;99.90
37906;DHT22;23739;51.448;6.674;2022-12-07T04:59:36;3.60;99.90
37906;DHT22;23739;51.448;6.674;2022-12-07T05:02:01;3.70;99.90
37906;DHT22;23739;51.448;6.674;2022-12-07T05:04:27;3.60;99.90
37906;DHT22;23739;51.448;6.674;2022-12-07T05:06:53;3.60;99.90
37906;DHT22;23739;51.448;6.674;2022-12-07T05:09:18;3.60;99.90
37906;DHT22;23739;51.448;6.674;2022-12-07T05:11:44;3.60;99.90
37906;DHT22;23739;51.448;6.674;2022-12-07T05:14:17;3.70;99.90
37906;DHT22;23739;51.448;6.674;2022-12-07T05:16:43;3.60;99.90
37906;DHT22;23739;51.448;6.674;2022-12-07T05:19:09;3.70;99.90
37906;DHT22;23739;51.448;6.674;2022-12-07T05:21:35;3.70;99.90
37906;DHT22;23739;51.448;6.674;2022-12-07T05:24:01;3.70;99.90
37906;DHT22;23739;51.448;6.674;2022-12-07T05:26:26;3.70;99.90
37906;DHT22;23739;51.448;6.674;2022-12-07T05:28:52;3.70;99.90
37906;DHT22;23739;51.448;6.674;2022-12-07T05:31:18;3.70;99.90
37906;DHT22;23739;51.448;6.674;2022-12-07T05:33:44;3.70;99.90
37906;DHT22;23739;51.448;6.674;2022-12-07T05:36:09;3.70;99.90
37906;DHT22;23739;51.448;6.674;2022-12-07T05:38:35;3.70;99.90
37906;DHT22;23739;51.448;6.674;2022-12-07T05:41:04;3.70;99.90
37906;DHT22;23739;51.448;6.674;2022-12-07T05:43:30;3.70;99.90
37906;DHT22;23739;51.448;6.674;2022-12-07T05:45:56;3.70;99.90
37906;DHT22;23739;51.448;6.674;2022-12-07T05:48:22;3.70;99.90
37906;DHT22;23739;51.448;6.674;2022-12-07T05:50:48;3.60;99.90
37906;DHT22;23739;51.448;6.674;2022-12-07T05:53:13;3.70;99.90
37906;DHT22;23739;51.448;6.674;2022-12-07T05:55:39;3.70;99.90
37906;DHT22;23739;51.448;6.674;2022-12-07T05:58:04;3.70;99.90
37906;DHT22;23739;51.448;6.674;2022-12-07T06:00:49;3.70;99.90
37906;DHT22;23739;51.448;6.674;2022-12-07T06:03:15;3.70;99.90
37906;DHT22;23739;51.448;6.674;2022-12-07T06:05:40;3.70;99.90
37906;DHT22;23739;51.448;6.674;2022-12-07T06:08:07;3.70;99.90
37906;DHT22;23739;51.448;6.674;2022-12-07T06:10:32;3.70;99.90
37906;DHT22;23739;51.448;6.674;2022-12-07T06:12:58;3.70;99.90
37906;DHT22;23739;51.448;6.674;2022-12-07T06:15:24;3.60;99.90
37906;DHT22;23739;51.448;6.674;2022-12-07T06:17:49;3.60;99.90
37906;DHT22;23739;51.448;6.674;2022-12-07T06:20:15;3.60;99.90
37906;DHT22;23739;51.448;6.674;2022-12-07T06:22:41;3.50;99.90
37906;DHT22;23739;51.448;6.674;2022-12-07T06:25:06;3.50;99.90
37906;DHT22;23739;51.448;6.674;2022-12-07T06:27:32;3.50;99.90
37906;DHT22;23739;51.448;6.674;2022-12-07T06:29:58;3.60;99.90
37906;DHT22;23739;51.448;6.674;2022-12-07T06:32:24;3.60;99.90
37906;DHT22;23739;51.448;6.674;2022-12-07T06:34:49;3.50;99.90
37906;DHT22;23739;51.448;6.674;2022-12-07T06:37:15;3.50;99.90
37906;DHT22;23739;51.448;6.674;2022-12-07T06:39:41;3.50;99.90
37906;DHT22;23739;51.448;6.674;2022-12-07T06:42:06;3.50;99.90
37906;DHT22;23739;51.448;6.674;2022-12-07T06:44:32;3.50;99.90
37906;DHT22;23739;51.448;6.674;2022-12-07T06:46:58;3.50;99.90
37906;DHT22;23739;51.448;6.674;2022-12-07T06:49:23;3.50;99.90
37906;DHT22;23739;51.448;6.674;2022-12-07T06:51:49;3.50;99.90
37906;DHT22;23739;51.448;6.674;2022-12-07T06:54:15;3.50;99.90
37906;DHT22;23739;51.448;6.674;2022-12-07T06:56:41;3.50;99.90
37906;DHT22;23739;51.448;6.674;2022-12-07T06:59:07;3.40;99.90
37906;DHT22;23739;51.448;6.674;2022-12-07T07:01:33;3.40;99.90
37906;DHT22;23739;51.448;6.674;2022-12-07T07:03:59;3.30;99.90
37906;DHT22;23739;51.448;6.674;2022-12-07T07:06:24;3.20;99.90
37906;DHT22;23739;51.448;6.674;2022-12-07T07:08:50;3.20;99.90
37906;DHT22;23739;51.448;6.674;2022-12-07T07:11:16;3.20;99.90
37906;DHT22;23739;51.448;6.674;2022-12-07T07:13:42;3.20;99.90
37906;DHT22;23739;51.448;6.674;2022-12-07T07:16:07;3.30;99.90
37906;DHT22;23739;51.448;6.674;2022-12-07T07:18:33;3.30;99.90
37906;DHT22;23739;51.448;6.674;2022-12-07T07:20:59;3.20;99.90
37906;DHT22;23739;51.448;6.674;2022-12-07T07:23:24;3.10;99.90
37906;DHT22;23739;51.448;6.674;2022-12-07T07:25:50;3.00;99.90
37906;DHT22;23739;51.448;6.674;2022-12-07T07:28:16;3.00;99.90
37906;DHT22;23739;51.448;6.674;2022-12-07T07:30:41;3.10;99.90
37906;DHT22;23739;51.448;6.674;2022-12-07T07:33:07;3.10;99.90
37906;DHT22;23739;51.448;6.674;2022-12-07T07:35:34;3.20;99.90
37906;DHT22;23739;51.448;6.674;2022-12-07T07:38:00;3.10;99.90
37906;DHT22;23739;51.448;6.674;2022-12-07T07:40:35;3.10;99.90
37906;DHT22;23739;51.448;6.674;2022-12-07T07:43:01;3.00;99.90
37906;DHT22;23739;51.448;6.674;2022-12-07T07:45:27;2.90;99.90
37906;DHT22;23739;51.448;6.674;2022-12-07T07:47:53;3.00;99.90
37906;DHT22;23739;51.448;6.674;2022-12-07T07:50:19;3.00;99.90
37906;DHT22;23739;51.448;6.674;2022-12-07T07:52:45;2.90;99.90
37906;DHT22;23739;51.448;6.674;2022-12-07T07:55:11;3.00;99.90
37906;DHT22;23739;51.448;6.674;2022-12-07T07:57:37;3.00;99.90
37906;DHT22;23739;51.448;6.674;2022-12-07T08:00:03;3.00;99.90
37906;DHT22;23739;51.448;6.674;2022-12-07T08:02:29;2.90;99.90
37906;DHT22;23739;51.448;6.674;2022-12-07T08:04:55;2.90;99.90
37906;DHT22;23739;51.448;6.674;2022-12-07T08:07:20;2.90;99.90
37906;DHT22;23739;51.448;6.674;2022-12-07T08:09:46;3.00;99.90
37906;DHT22;23739;51.448;6.674;2022-12-07T08:12:12;3.00;99.90
37906;DHT22;23739;51.448;6.674;2022-12-07T08:14:37;3.10;99.90
37906;DHT22;23739;51.448;6.674;2022-12-07T08:17:03;3.10;99.90
37906;DHT22;23739;51.448;6.674;2022-12-07T08:19:29;3.00;99.90
37906;DHT22;23739;51.448;6.674;2022-12-07T08:21:55;3.00;99.90
37906;DHT22;23739;51.448;6.674;2022-12-07T08:24:23;3.00;99.90
37906;DHT22;23739;51.448;6.674;2022-12-07T08:26:53;3.00;99.90
37906;DHT22;23739;51.448;6.674;2022-12-07T08:29:20;3.10;99.90
37906;DHT22;23739;51.448;6.674;2022-12-07T08:31:46;3.20;99.90
37906;DHT22;23739;51.448;6.674;2022-12-07T08:34:12;3.20;99.90
37906;DHT22;23739;51.448;6.674;2022-12-07T08:36:38;3.40;99.90
37906;DHT22;23739;51.448;6.674;2022-12-07T08:39:03;3.40;99.90
37906;DHT22;23739;51.448;6.674;2022-12-07T08:41:29;3.50;99.90
37906;DHT22;23739;51.448;6.674;2022-12-07T08:43:55;3.60;99.90
37906;DHT22;23739;51.448;6.674;2022-12-07T08:46:25;3.70;99.90
37906;DHT22;23739;51.448;6.674;2022-12-07T08:48:56;3.80;99.90
37906;DHT22;23739;51.448;6.674;2022-12-07T08:51:23;3.80;99.90
37906;DHT22;23739;51.448;6.674;2022-12-07T08:53:49;3.70;99.90
37906;DHT22;23739;51.448;6.674;2022-12-07T08:56:15;3.80;99.90
37906;DHT22;23739;51.448;6.674;2022-12-07T08:58:41;3.90;99.90
37906;DHT22;23739;51.448;6.674;2022-12-07T09:01:07;4.10;99.90
37906;DHT22;23739;51.448;6.674;2022-12-07T09:03:33;4.10;99.90
37906;DHT22;23739;51.448;6.674;2022-12-07T09:05:58;4.40;99.90
37906;DHT22;23739;51.448;6.674;2022-12-07T09:08:26;4.50;99.90
37906;DHT22;23739;51.448;6.674;2022-12-07T09:10:54;4.70;99.90
37906;DHT22;23739;51.448;6.674;2022-12-07T09:13:20;4.80;99.90
37906;DHT22;23739;51.448;6.674;2022-12-07T09:15:45;4.90;99.90
37906;DHT22;23739;51.448;6.674;2022-12-07T09:18:11;4.80;99.90
37906;DHT22;23739;51.448;6.674;2022-12-07T09:20:37;4.70;99.90
37906;DHT22;23739;51.448;6.674;2022-12-07T09:23:05;4.70;99.90
37906;DHT22;23739;51.448;6.674;2022-12-07T09:25:30;4.60;99.90
37906;DHT22;23739;51.448;6.674;2022-12-07T09:27:57;4.50;99.90
37906;DHT22;23739;51.448;6.674;2022-12-07T09:30:22;4.40;99.90
37906;DHT22;23739;51.448;6.674;2022-12-07T09:32:48;4.40;99.90
37906;DHT22;23739;51.448;6.674;2022-12-07T09:35:14;4.50;99.90
37906;DHT22;23739;51.448;6.674;2022-12-07T09:37:40;4.50;99.90
37906;DHT22;23739;51.448;6.674;2022-12-07T09:40:06;4.50;99.90
37906;DHT22;23739;51.448;6.674;2022-12-07T09:44:58;4.50;99.90
37906;DHT22;23739;51.448;6.674;2022-12-07T09:47:24;4.80;99.90
37906;DHT22;23739;51.448;6.674;2022-12-07T09:49:49;5.10;99.90
37906;DHT22;23739;51.448;6.674;2022-12-07T09:52:27;5.10;99.90
37906;DHT22;23739;51.448;6.674;2022-12-07T09:54:54;5.10;99.90
37906;DHT22;23739;51.448;6.674;2022-12-07T09:57:22;5.10;99.90
37906;DHT22;23739;51.448;6.674;2022-12-07T09:59:50;5.10;99.90
37906;DHT22;23739;51.448;6.674;2022-12-07T10:02:38;4.90;99.90
37906;DHT22;23739;51.448;6.674;2022-12-07T10:05:06;5.10;99.90
37906;DHT22;23739;51.448;6.674;2022-12-07T10:07:32;5.30;99.90
37906;DHT22;23739;51.448;6.674;2022-12-07T10:09:58;5.50;99.90
37906;DHT22;23739;51.448;6.674;2022-12-07T10:12:23;5.60;99.90
37906;DHT22;23739;51.448;6.674;2022-12-07T10:14:53;5.70;99.90
37906;DHT22;23739;51.448;6.674;2022-12-07T10:17:26;5.80;99.90
37906;DHT22;23739;51.448;6.674;2022-12-07T10:20:08;5.80;99.90
37906;DHT22;23739;51.448;6.674;2022-12-07T10:22:34;5.60;99.90
37906;DHT22;23739;51.448;6.674;2022-12-07T10:25:07;6.00;99.90
37906;DHT22;23739;51.448;6.674;2022-12-07T10:27:33;6.20;99.90
37906;DHT22;23739;51.448;6.674;2022-12-07T10:29:59;6.40;99.90
37906;DHT22;23739;51.448;6.674;2022-12-07T10:32:30;6.10;99.90
37906;DHT22;23739;51.448;6.674;2022-12-07T10:35:19;6.10;99.90
37906;DHT22;23739;51.448;6.674;2022-12-07T10:37:42;6.10;99.90
37906;DHT22;23739;51.448;6.674;2022-12-07T10:43:06;6.20;99.90
37906;DHT22;23739;51.448;6.674;2022-12-07T10:45:53;6.30;99.90
37906;DHT22;23739;51.448;6.674;2022-12-07T10:51:04;6.20;99.90
37906;DHT22;23739;51.448;6.674;2022-12-07T10:53:48;6.10;99.90
37906;DHT22;23739;51.448;6.674;2022-12-07T11:11:35;6.00;99.90
37906;DHT22;23739;51.448;6.674;2022-12-07T11:14:08;6.10;99.90
37906;DHT22;23739;51.448;6.674;2022-12-07T11:21:42;6.20;99.90
37906;DHT22;23739;51.448;6.674;2022-12-07T11:24:14;6.20;99.90
37906;DHT22;23739;51.448;6.674;2022-12-07T11:26:43;6.20;99.90
37906;DHT22;23739;51.448;6.674;2022-12-07T11:31:56;6.30;99.90
37906;DHT22;23739;51.448;6.674;2022-12-07T11:37:12;6.30;99.90
37906;DHT22;23739;51.448;6.674;2022-12-07T11:39:41;6.30;99.90
37906;DHT22;23739;51.448;6.674;2022-12-07T11:42:24;6.40;99.90
37906;DHT22;23739;51.448;6.674;2022-12-07T11:54:54;6.30;99.90
37906;DHT22;23739;51.448;6.674;2022-12-07T11:57:24;6.20;99.90
37906;DHT22;23739;51.448;6.674;2022-12-07T11:59:59;6.10;99.90
37906;DHT22;23739;51.448;6.674;2022-12-07T12:02:28;6.10;99.90
37906;DHT22;23739;51.448;6.674;2022-12-07T12:07:23;6.10;99.90
37906;DHT22;23739;51.448;6.674;2022-12-07T12:09:54;6.10;99.90
37906;DHT22;23739;51.448;6.674;2022-12-07T12:20:37;6.20;99.90
37906;DHT22;23739;51.448;6.674;2022-12-07T12:23:07;6.10;99.90
37906;DHT22;23739;51.448;6.674;2022-12-07T12:25:39;6.10;99.90
37906;DHT22;23739;51.448;6.674;2022-12-07T12:28:05;6.10;99.90
37906;DHT22;23739;51.448;6.674;2022-12-07T12:30:40;6.10;99.90
37906;DHT22;23739;51.448;6.674;2022-12-07T12:33:13;6.10;99.90
37906;DHT22;23739;51.448;6.674;2022-12-07T12:35:39;6.10;99.90
37906;DHT22;23739;51.448;6.674;2022-12-07T12:40:50;6.20;99.90
37906;DHT22;23739;51.448;6.674;2022-12-07T12:48:44;6.10;99.90
37906;DHT22;23739;51.448;6.674;2022-12-07T12:54:02;6.10;99.90
37906;DHT22;23739;51.448;6.674;2022-12-07T12:56:43;6.10;99.90
37906;DHT22;23739;51.448;6.674;2022-12-07T13:01:48;6.20;99.90
37906;DHT22;23739;51.448;6.674;2022-12-07T13:04:16;6.10;99.90
37906;DHT22;23739;51.448;6.674;2022-12-07T13:06:43;6.20;99.90
37906;DHT22;23739;51.448;6.674;2022-12-07T13:09:17;6.30;99.90
37906;DHT22;23739;51.448;6.674;2022-12-07T13:11:44;6.30;99.90
37906;DHT22;23739;51.448;6.674;2022-12-07T13:16:57;6.30;99.90
37906;DHT22;23739;51.448;6.674;2022-12-07T13:24:55;6.40;99.90
37906;DHT22;23739;51.448;6.674;2022-12-07T13:27:21;6.40;99.90
37906;DHT22;23739;51.448;6.674;2022-12-07T13:29:47;6.40;99.90
37906;DHT22;23739;51.448;6.674;2022-12-07T13:32:28;6.30;99.90
37906;DHT22;23739;51.448;6.674;2022-12-07T13:34:55;6.30;99.90
37906;DHT22;23739;51.448;6.674;2022-12-07T13:37:27;6.30;99.90
37906;DHT22;23739;51.448;6.674;2022-12-07T13:39:57;6.30;99.90
37906;DHT22;23739;51.448;6.674;2022-12-07T13:42:30;6.40;99.90
37906;DHT22;23739;51.448;6.674;2022-12-07T13:44:57;6.30;99.90
37906;DHT22;23739;51.448;6.674;2022-12-07T13:47:41;6.30;99.90
37906;DHT22;23739;51.448;6.674;2022-12-07T13:50:28;6.20;99.90
37906;DHT22;23739;51.448;6.674;2022-12-07T13:53:00;6.20;99.90
37906;DHT22;23739;51.448;6.674;2022-12-07T13:55:27;6.30;99.90
37906;DHT22;23739;51.448;6.674;2022-12-07T13:57:53;6.30;99.90
37906;DHT22;23739;51.448;6.674;2022-12-07T14:00:26;6.30;99.90
37906;DHT22;23739;51.448;6.674;2022-12-07T14:03:03;6.30;99.90
37906;DHT22;23739;51.448;6.674;2022-12-07T14:05:33;6.30;99.90
37906;DHT22;23739;51.448;6.674;2022-12-07T14:08:00;6.20;99.90
37906;DHT22;23739;51.448;6.674;2022-12-07T14:10:36;6.20;99.90
37906;DHT22;23739;51.448;6.674;2022-12-07T14:13:03;6.00;99.90
37906;DHT22;23739;51.448;6.674;2022-12-07T14:15:30;6.00;99.90
37906;DHT22;23739;51.448;6.674;2022-12-07T14:17:57;6.00;99.90
37906;DHT22;23739;51.448;6.674;2022-12-07T14:22:58;5.90;99.90
37906;DHT22;23739;51.448;6.674;2022-12-07T14:25:27;5.90;99.90
37906;DHT22;23739;51.448;6.674;2022-12-07T14:27:56;5.90;99.90
37906;DHT22;23739;51.448;6.674;2022-12-07T14:30:24;5.80;99.90
37906;DHT22;23739;51.448;6.674;2022-12-07T14:32:51;5.80;99.90
37906;DHT22;23739;51.448;6.674;2022-12-07T14:35:17;5.70;99.90
37906;DHT22;23739;51.448;6.674;2022-12-07T14:37:44;5.60;99.90
37906;DHT22;23739;51.448;6.674;2022-12-07T14:40:29;5.60;99.90
37906;DHT22;23739;51.448;6.674;2022-12-07T14:43:05;5.60;99.90
37906;DHT22;23739;51.448;6.674;2022-12-07T14:45:32;5.50;99.90
37906;DHT22;23739;51.448;6.674;2022-12-07T14:47:57;5.40;99.90
37906;DHT22;23739;51.448;6.674;2022-12-07T14:50:23;5.30;99.90
37906;DHT22;23739;51.448;6.674;2022-12-07T14:52:54;5.30;99.90
37906;DHT22;23739;51.448;6.674;2022-12-07T14:55:28;5.30;99.90
37906;DHT22;23739;51.448;6.674;2022-12-07T14:57:54;5.30;99.90
37906;DHT22;23739;51.448;6.674;2022-12-07T15:00:20;5.20;99.90
37906;DHT22;23739;51.448;6.674;2022-12-07T15:02:47;5.10;99.90
37906;DHT22;23739;51.448;6.674;2022-12-07T15:05:12;5.10;99.90
37906;DHT22;23739;51.448;6.674;2022-12-07T15:07:38;5.00;99.90
37906;DHT22;23739;51.448;6.674;2022-12-07T15:10:04;4.90;99.90
37906;DHT22;23739;51.448;6.674;2022-12-07T15:12:30;4.90;99.90
37906;DHT22;23739;51.448;6.674;2022-12-07T15:14:56;4.80;99.90
37906;DHT22;23739;51.448;6.674;2022-12-07T15:17:22;4.70;99.90
37906;DHT22;23739;51.448;6.674;2022-12-07T15:19:47;4.60;99.90
37906;DHT22;23739;51.448;6.674;2022-12-07T15:22:13;4.70;99.90
37906;DHT22;23739;51.448;6.674;2022-12-07T15:24:39;4.70;99.90
37906;DHT22;23739;51.448;6.674;2022-12-07T15:27:04;4.70;99.90
37906;DHT22;23739;51.448;6.674;2022-12-07T15:29:30;4.70;99.90
37906;DHT22;23739;51.448;6.674;2022-12-07T15:31:55;4.80;99.90
37906;DHT22;23739;51.448;6.674;2022-12-07T15:34:23;4.80;99.90
37906;DHT22;23739;51.448;6.674;2022-12-07T15:36:48;4.80;99.90
37906;DHT22;23739;51.448;6.674;2022-12-07T15:39:14;4.80;99.90
37906;DHT22;23739;51.448;6.674;2022-12-07T15:41:39;4.80;99.90
37906;DHT22;23739;51.448;6.674;2022-12-07T15:44:05;4.70;99.90
37906;DHT22;23739;51.448;6.674;2022-12-07T15:47:06;4.80;99.90
37906;DHT22;23739;51.448;6.674;2022-12-07T15:49:32;4.80;99.90
37906;DHT22;23739;51.448;6.674;2022-12-07T15:51:58;4.70;99.90
37906;DHT22;23739;51.448;6.674;2022-12-07T15:54:24;4.80;99.90
37906;DHT22;23739;51.448;6.674;2022-12-07T15:56:50;4.80;99.90
37906;DHT22;23739;51.448;6.674;2022-12-07T15:59:16;4.80;99.90
37906;DHT22;23739;51.448;6.674;2022-12-07T16:01:42;4.80;99.90
37906;DHT22;23739;51.448;6.674;2022-12-07T16:04:08;4.90;99.90
37906;DHT22;23739;51.448;6.674;2022-12-07T16:06:33;4.90;99.90
37906;DHT22;23739;51.448;6.674;2022-12-07T16:08:59;4.80;99.90
37906;DHT22;23739;51.448;6.674;2022-12-07T16:11:25;4.90;99.90
37906;DHT22;23739;51.448;6.674;2022-12-07T16:13:51;4.90;99.90
37906;DHT22;23739;51.448;6.674;2022-12-07T16:16:17;4.90;99.90
37906;DHT22;23739;51.448;6.674;2022-12-07T16:18:44;4.90;99.90
37906;DHT22;23739;51.448;6.674;2022-12-07T16:21:10;4.90;99.90
37906;DHT22;23739;51.448;6.674;2022-12-07T16:23:35;4.90;99.90
37906;DHT22;23739;51.448;6.674;2022-12-07T16:26:08;4.90;99.90
37906;DHT22;23739;51.448;6.674;2022-12-07T16:28:34;4.90;99.90
37906;DHT22;23739;51.448;6.674;2022-12-07T16:31:01;4.90;99.90
37906;DHT22;23739;51.448;6.674;2022-12-07T16:33:27;4.90;99.90
37906;DHT22;23739;51.448;6.674;2022-12-07T16:35:53;4.80;99.90
37906;DHT22;23739;51.448;6.674;2022-12-07T16:38:18;4.90;99.90
37906;DHT22;23739;51.448;6.674;2022-12-07T16:40:44;4.90;99.90
37906;DHT22;23739;51.448;6.674;2022-12-07T16:43:10;4.90;99.90
37906;DHT22;23739;51.448;6.674;2022-12-07T16:45:36;5.00;99.90
37906;DHT22;23739;51.448;6.674;2022-12-07T16:48:02;5.00;99.90
37906;DHT22;23739;51.448;6.674;2022-12-07T16:50:27;5.00;99.90
37906;DHT22;23739;51.448;6.674;2022-12-07T16:52:53;5.00;99.90
37906;DHT22;23739;51.448;6.674;2022-12-07T16:55:18;5.00;99.90
37906;DHT22;23739;51.448;6.674;2022-12-07T16:57:44;4.90;99.90
37906;DHT22;23739;51.448;6.674;2022-12-07T17:00:10;4.90;99.90
37906;DHT22;23739;51.448;6.674;2022-12-07T17:02:36;4.90;99.90
37906;DHT22;23739;51.448;6.674;2022-12-07T17:05:01;5.00;99.90
37906;DHT22;23739;51.448;6.674;2022-12-07T17:07:27;4.90;99.90
37906;DHT22;23739;51.448;6.674;2022-12-07T17:09:52;5.00;99.90
37906;DHT22;23739;51.448;6.674;2022-12-07T17:12:19;4.90;99.90
37906;DHT22;23739;51.448;6.674;2022-12-07T17:14:44;4.90;99.90
37906;DHT22;23739;51.448;6.674;2022-12-07T17:17:28;4.90;99.90
37906;DHT22;23739;51.448;6.674;2022-12-07T17:19:54;4.80;99.90
37906;DHT22;23739;51.448;6.674;2022-12-07T17:22:19;4.80;99.90
37906;DHT22;23739;51.448;6.674;2022-12-07T17:24:45;4.80;99.90
37906;DHT22;23739;51.448;6.674;2022-12-07T17:27:11;4.80;99.90
37906;DHT22;23739;51.448;6.674;2022-12-07T17:29:36;4.80;99.90
37906;DHT22;23739;51.448;6.674;2022-12-07T17:32:02;4.80;99.90
37906;DHT22;23739;51.448;6.674;2022-12-07T17:34:28;4.70;99.90